Terminal Aerodrome Forecast
Issued by NWS Shreveport, LA

Home | Current Version | Previous Version | Text Only | Print | Product List | Glossary On
Versions: 1 2 3 4 5 6 7 8 9 10 11 12 13
000
FTUS44 KSHV 151731
TAFTYR
TAF
KTYR 151731Z 1518/1618 33006KT P6SM BKN250
     FM160000 VRB02KT P6SM SCT250
     FM160600 19004KT P6SM SCT250
     FM161600 16007KT P6SM BKN250=

USA.gov is the U.S. government's official web portal to all federal, state and local government web resources and services.